Time;durP1;ratioP1;P1;durP2;ratioP2;P2;SDS_P1;SDS_P2;PMS_P1;PMS_P2;Temp;Humidity;BMP_temperature;BMP_pressure;BME280_temperature;BME280_humidity;BME280_pressure;Samples;Min_cycle;Max_cycle;Signal;HPM_P1;HPM_P2
2022/02/15 00:00:35;;;;;;;1.13;0.63;;;6.10;99.90;;;;;;5065316;28;20455;-91
2022/02/15 00:03:03;;;;;;;1.17;0.80;;;;;;;;;;5064977;28;20486;-93
2022/02/15 00:05:30;;;;;;;1.00;0.70;;;;;;;;;;5062723;28;20469;-91
2022/02/15 00:07:57;;;;;;;0.70;0.40;;;;;;;;;;5026552;28;20468;-89
2022/02/15 00:10:24;;;;;;;1.27;0.80;;;;;;;;;;5039685;28;20428;-94
2022/02/15 00:12:51;;;;;;;1.30;1.17;;;;;;;;;;5044665;28;20455;-94
2022/02/15 00:15:19;;;;;;;0.83;0.57;;;;;;;;;;5045255;28;20466;-91
2022/02/15 00:17:49;;;;;;;1.83;0.83;;;;;;;;;;5043912;28;20447;-87
2022/02/15 00:20:17;;;;;;;1.40;0.90;;;;;;;;;;5037873;28;20459;-93
2022/02/15 00:22:44;;;;;;;1.80;1.20;;;;;;;;;;5038321;28;21016;-88
2022/02/15 00:25:13;;;;;;;2.57;1.13;;;;;;;;;;5038079;28;20448;-89
2022/02/15 00:27:42;;;;;;;0.90;0.73;;;6.10;99.90;;;;;;5038122;28;20455;-87
2022/02/15 00:30:13;;;;;;;2.60;1.40;;;6.10;99.90;;;;;;5039072;28;20812;-88
2022/02/15 00:32:41;;;;;;;1.23;1.10;;;;;;;;;;5037805;28;20455;-87
2022/02/15 00:35:10;;;;;;;1.00;0.90;;;6.10;99.90;;;;;;5038163;28;20521;-94
2022/02/15 00:37:37;;;;;;;0.90;0.77;;;;;;;;;;5038003;28;20474;-90
2022/02/15 00:40:06;;;;;;;1.00;0.90;;;5.70;99.90;;;;;;5035575;28;20482;-87
2022/02/15 00:42:33;;;;;;;1.67;0.90;;;;;;;;;;5035366;28;20492;-93
2022/02/15 00:45:01;;;;;;;1.10;0.63;;;;;;;;;;5036765;28;20451;-92
2022/02/15 00:47:28;;;;;;;2.00;1.30;;;;;;;;;;5035797;28;20451;-86
2022/02/15 00:49:55;;;;;;;1.33;1.13;;;;;;;;;;5035833;28;20455;-92
2022/02/15 00:52:26;;;;;;;2.03;1.40;;;6.00;99.90;;;;;;5039802;28;20474;-91
2022/02/15 00:54:54;;;;;;;2.57;1.10;;;;;;;;;;5041776;28;20455;-92
2022/02/15 00:57:22;;;;;;;1.80;1.20;;;;;;;;;;5039082;28;20481;-94
2022/02/15 00:59:49;;;;;;;1.63;1.00;;;;;;;;;;5041070;28;20451;-85
2022/02/15 01:02:16;;;;;;;1.47;1.17;;;;;;;;;;5046542;28;20502;-88
2022/02/15 01:04:44;;;;;;;2.43;1.33;;;;;;;;;;5057852;28;20462;-88
2022/02/15 01:07:11;;;;;;;3.57;1.63;;;;;;;;;;5051941;28;20456;-91
2022/02/15 01:09:40;;;;;;;4.20;1.37;;;;;;;;;;5044449;28;20447;-88
2022/02/15 01:12:09;;;;;;;1.73;1.33;;;5.90;99.90;;;;;;5043825;28;20435;-90
2022/02/15 01:14:36;;;;;;;2.83;1.33;;;;;;;;;;5040929;28;20439;-91
2022/02/15 01:17:03;;;;;;;3.27;1.10;;;;;;;;;;5042207;28;20459;-92
2022/02/15 01:19:31;;;;;;;1.13;0.90;;;;;;;;;;5041750;28;20447;-92
2022/02/15 01:21:58;;;;;;;3.13;1.27;;;;;;;;;;5040341;28;20484;-89
2022/02/15 01:24:25;;;;;;;0.80;0.80;;;;;;;;;;5041679;28;20451;-90
2022/02/15 01:26:54;;;;;;;2.97;1.03;;;5.70;99.90;;;;;;5041410;28;20447;-87
2022/02/15 01:29:21;;;;;;;2.33;1.20;;;;;;;;;;5040203;28;20460;-90
2022/02/15 01:31:48;;;;;;;2.37;1.20;;;;;;;;;;5043529;28;20474;-92
2022/02/15 01:34:16;;;;;;;0.73;0.60;;;;;;;;;;5041768;28;20458;-88
2022/02/15 01:36:43;;;;;;;1.33;1.10;;;;;;;;;;5040350;28;20468;-88
2022/02/15 01:39:10;;;;;;;1.50;1.27;;;;;;;;;;5042959;28;20447;-87
2022/02/15 01:41:38;;;;;;;2.47;1.33;;;;;;;;;;5041179;28;20448;-89
2022/02/15 01:44:07;;;;;;;1.20;1.00;;;5.50;99.90;;;;;;5042052;28;20486;-90
2022/02/15 01:46:34;;;;;;;2.57;1.20;;;;;;;;;;5039871;28;20481;-89
2022/02/15 01:49:01;;;;;;;2.60;1.10;;;;;;;;;;5042346;28;20486;-92
2022/02/15 01:51:30;;;;;;;1.57;1.13;;;;;;;;;;5038438;28;20444;-90
2022/02/15 01:53:58;;;;;;;2.90;1.40;;;;;;;;;;5039002;28;20558;-85
2022/02/15 01:56:28;;;;;;;1.90;1.13;;;5.50;99.90;;;;;;5039911;28;20479;-90
2022/02/15 01:58:56;;;;;;;2.77;1.37;;;;;;;;;;5041819;28;20447;-93
2022/02/15 02:01:24;;;;;;;3.10;1.13;;;5.40;99.90;;;;;;5039428;28;20935;-90
2022/02/15 02:03:51;;;;;;;1.13;1.03;;;;;;;;;;5040332;28;20490;-90
2022/02/15 02:06:17;;;;;;;1.60;1.00;;;;;;;;;;5041591;28;20451;-93
2022/02/15 02:08:44;;;;;;;0.60;0.50;;;;;;;;;;5040522;28;20522;-90
2022/02/15 02:11:12;;;;;;;1.70;1.17;;;;;;;;;;5040646;28;20457;-92
2022/02/15 02:13:39;;;;;;;2.10;1.50;;;;;;;;;;5039696;28;20447;-92
2022/02/15 02:16:06;;;;;;;1.60;1.30;;;5.30;99.90;;;;;;5038698;28;20493;-90
2022/02/15 02:18:35;;;;;;;1.97;1.17;;;5.30;99.90;;;;;;5037411;28;20440;-93
2022/02/15 02:21:04;;;;;;;1.63;1.43;;;5.30;99.90;;;;;;5035415;28;20939;-93
2022/02/15 02:23:32;;;;;;;1.77;1.33;;;5.20;99.90;;;;;;5037121;28;21028;-91
2022/02/15 02:25:59;;;;;;;1.43;1.00;;;;;;;;;;5037487;28;20440;-90
2022/02/15 02:28:26;;;;;;;2.57;1.23;;;;;;;;;;5037453;28;20443;-91
2022/02/15 02:30:53;;;;;;;1.63;1.30;;;;;;;;;;5036760;28;20455;-92
2022/02/15 02:33:20;;;;;;;1.20;1.10;;;;;;;;;;5037606;28;20440;-92
2022/02/15 02:35:48;;;;;;;3.07;1.07;;;;;;;;;;5036295;28;20490;-92
2022/02/15 02:38:16;;;;;;;1.33;1.07;;;5.20;99.90;;;;;;5036938;28;20432;-91
2022/02/15 02:40:44;;;;;;;4.17;1.00;;;;;;;;;;5037285;28;20454;-93
2022/02/15 02:43:11;;;;;;;1.23;1.13;;;;;;;;;;5037499;28;20479;-89
2022/02/15 02:45:38;;;;;;;1.80;1.20;;;;;;;;;;5043695;28;20462;-91
2022/02/15 02:48:05;;;;;;;2.27;1.10;;;;;;;;;;5046311;28;20809;-90
2022/02/15 02:50:32;;;;;;;0.50;0.50;;;;;;;;;;5038737;28;20440;-92
2022/02/15 02:53:00;;;;;;;0.50;0.50;;;;;;;;;;5038162;28;20448;-89
2022/02/15 02:55:29;;;;;;;1.80;1.20;;;5.20;99.90;;;;;;5036164;28;20455;-86
2022/02/15 02:57:56;;;;;;;2.23;0.90;;;;;;;;;;5033354;28;20491;-89
2022/02/15 03:00:23;;;;;;;1.30;1.20;;;;;;;;;;5036513;28;20443;-93
2022/02/15 03:02:50;;;;;;;1.10;1.00;;;;;;;;;;5036019;28;20476;-91
2022/02/15 03:05:17;;;;;;;2.43;1.00;;;;;;;;;;5035623;28;20443;-87
2022/02/15 03:07:44;;;;;;;2.83;0.90;;;;;;;;;;5035677;28;20444;-93
2022/02/15 03:10:11;;;;;;;1.13;0.83;;;;;;;;;;5035601;28;20954;-87
2022/02/15 03:12:39;;;;;;;3.23;1.47;;;5.40;99.90;;;;;;5035013;28;20458;-92
2022/02/15 03:15:07;;;;;;;1.60;1.10;;;5.30;99.90;;;;;;5035475;28;20448;-92
2022/02/15 03:17:34;;;;;;;0.40;0.30;;;;;;;;;;5035441;28;20944;-90
2022/02/15 03:20:01;;;;;;;1.60;0.80;;;;;;;;;;5034637;28;20454;-91
2022/02/15 03:22:29;;;;;;;1.23;0.90;;;;;;;;;;5035012;28;20512;-89
2022/02/15 03:24:56;;;;;;;1.33;0.80;;;;;;;;;;5035630;28;20436;-88
2022/02/15 03:27:23;;;;;;;3.97;1.30;;;;;;;;;;5036629;28;20455;-89
2022/02/15 03:29:51;;;;;;;0.80;0.57;;;;;;;;;;5037277;28;20454;-90
2022/02/15 03:32:19;;;;;;;4.10;1.10;;;;;;;;;;5035401;28;20440;-85
2022/02/15 03:34:46;;;;;;;1.23;1.13;;;;;;;;;;5034227;28;20936;-89
2022/02/15 03:37:13;;;;;;;3.10;1.27;;;;;;;;;;5035444;28;20864;-91
2022/02/15 03:39:40;;;;;;;2.17;1.20;;;;;;;;;;5035697;28;20440;-91
2022/02/15 03:44:54;;;;;;;2.10;1.10;;;;;;;;;;5035215;28;20431;-90
2022/02/15 03:47:21;;;;;;;2.50;1.00;;;;;;;;;;5034997;28;20467;-90
2022/02/15 03:49:49;;;;;;;1.80;1.00;;;;;;;;;;5034006;28;20455;-89
2022/02/15 03:52:16;;;;;;;1.73;0.83;;;;;;;;;;5036149;28;20451;-92
2022/02/15 03:54:43;;;;;;;1.77;0.80;;;;;;;;;;5036074;28;20453;-88
2022/02/15 03:57:10;;;;;;;1.20;1.00;;;;;;;;;;5035941;28;20491;-91
2022/02/15 03:59:38;;;;;;;0.80;0.60;;;5.60;99.90;;;;;;5035421;28;20448;-90
2022/02/15 04:02:06;;;;;;;1.80;0.97;;;5.60;99.90;;;;;;5031254;28;20444;-91
2022/02/15 04:04:33;;;;;;;5.13;1.20;;;;;;;;;;5036487;28;20491;-92
2022/02/15 04:07:01;;;;;;;2.80;0.77;;;;;;;;;;5035901;28;20460;-94
2022/02/15 04:09:28;;;;;;;3.20;1.20;;;;;;;;;;5035042;28;20530;-94
2022/02/15 04:11:55;;;;;;;2.40;0.67;;;;;;;;;;5035425;28;20470;-92
2022/02/15 04:14:22;;;;;;;1.83;1.07;;;;;;;;;;5034745;28;20436;-94
2022/02/15 04:16:50;;;;;;;1.17;0.87;;;;;;;;;;5035008;28;20443;-92
2022/02/15 04:19:18;;;;;;;1.53;1.10;;;5.60;99.90;;;;;;5034899;28;20458;-90
2022/02/15 04:21:45;;;;;;;2.67;0.90;;;;;;;;;;5033386;28;20965;-90
2022/02/15 04:24:12;;;;;;;1.20;0.73;;;;;;;;;;5033253;28;20503;-94
2022/02/15 04:26:40;;;;;;;4.53;1.40;;;;;;;;;;5033956;28;20459;-92
2022/02/15 04:29:07;;;;;;;3.57;1.17;;;;;;;;;;5034395;28;20942;-91
2022/02/15 04:31:34;;;;;;;1.97;1.10;;;;;;;;;;5034270;28;20455;-91
2022/02/15 04:34:02;;;;;;;2.60;1.27;;;;;;;;;;5033848;28;20458;-91
2022/02/15 04:36:30;;;;;;;1.40;1.03;;;5.40;99.90;;;;;;5033822;28;20471;-90
2022/02/15 04:38:57;;;;;;;2.30;1.33;;;;;;;;;;5033991;28;20947;-92
2022/02/15 04:41:24;;;;;;;1.23;0.67;;;;;;;;;;5034728;28;20451;-92
2022/02/15 04:43:52;;;;;;;2.30;1.57;;;;;;;;;;5034460;28;20492;-91
2022/02/15 04:46:19;;;;;;;1.30;1.17;;;;;;;;;;5033722;28;20460;-92
2022/02/15 04:48:46;;;;;;;1.70;1.23;;;;;;;;;;5035153;28;20527;-93
2022/02/15 04:51:13;;;;;;;5.27;1.77;;;;;;;;;;5033576;28;20443;-94
2022/02/15 04:53:41;;;;;;;4.13;1.93;;;5.30;99.90;;;;;;5034342;28;20444;-92
2022/02/15 04:56:08;;;;;;;2.03;1.17;;;;;;;;;;5016043;28;20443;-93
2022/02/15 04:58:35;;;;;;;1.40;1.30;;;;;;;;;;5034335;28;20448;-91
2022/02/15 05:01:02;;;;;;;1.27;0.97;;;;;;;;;;5034488;28;20448;-93
2022/02/15 05:03:29;;;;;;;3.83;2.50;;;;;;;;;;5034873;28;20487;-91
2022/02/15 05:05:57;;;;;;;3.67;1.33;;;;;;;;;;5034144;28;20441;-94
2022/02/15 05:08:24;;;;;;;4.00;1.67;;;;;;;;;;5035767;28;20451;-92
2022/02/15 05:10:52;;;;;;;3.50;2.17;;;;;;;;;;5034477;28;20447;-92
2022/02/15 05:13:19;;;;;;;1.77;1.67;;;;;;;;;;5034507;28;20462;-93
2022/02/15 05:15:47;;;;;;;1.40;1.00;;;;;;;;;;5034561;28;20444;-93
2022/02/15 05:18:14;;;;;;;5.97;2.00;;;;;;;;;;5034784;28;20459;-94
2022/02/15 05:20:41;;;;;;;1.53;1.37;;;;;;;;;;5033404;28;20485;-94
2022/02/15 05:23:09;;;;;;;1.53;1.23;;;;;;;;;;5033369;28;20475;-92
2022/02/15 05:25:37;;;;;;;1.90;1.60;;;;;;;;;;5039573;28;20446;-91
2022/02/15 05:28:05;;;;;;;1.70;1.40;;;5.70;99.90;;;;;;5037315;28;20523;-92
2022/02/15 05:30:33;;;;;;;3.10;1.20;;;;;;;;;;5035541;28;20447;-93
2022/02/15 05:33:00;;;;;;;1.97;0.60;;;;;;;;;;5036771;28;20455;-91
2022/02/15 05:35:27;;;;;;;1.70;1.20;;;;;;;;;;5035729;28;20460;-90
2022/02/15 05:37:54;;;;;;;5.80;1.70;;;;;;;;;;5044961;28;20440;-93
2022/02/15 05:40:21;;;;;;;0.97;0.70;;;;;;;;;;5048354;28;21218;-90
2022/02/15 05:42:49;;;;;;;2.70;1.50;;;;;;;;;;5044780;28;20448;-92
2022/02/15 05:45:17;;;;;;;2.53;1.77;;;5.60;99.90;;;;;;5044319;28;20447;-93
2022/02/15 05:47:44;;;;;;;5.20;2.87;;;;;;;;;;5044289;28;20443;-90
2022/02/15 05:52:56;;;;;;;0.77;0.70;;;;;;;;;;5046640;28;20471;-93
2022/02/15 05:55:23;;;;;;;1.20;0.80;;;;;;;;;;5043276;28;20447;-92
2022/02/15 05:57:50;;;;;;;1.93;1.50;;;;;;;;;;5042754;28;20483;-93
2022/02/15 06:00:19;;;;;;;2.30;2.00;;;5.50;99.90;;;;;;5043200;28;20455;-95
2022/02/15 06:02:47;;;;;;;1.60;1.50;;;5.50;99.90;;;;;;5045721;28;20447;-91
2022/02/15 06:05:14;;;;;;;1.40;1.30;;;;;;;;;;5043398;28;20494;-93
2022/02/15 06:07:41;;;;;;;1.43;1.23;;;;;;;;;;5048628;28;20446;-90
2022/02/15 06:10:09;;;;;;;2.30;1.60;;;;;;;;;;5044179;28;20440;-94
2022/02/15 06:12:36;;;;;;;2.07;1.30;;;;;;;;;;5041965;28;20454;-93
2022/02/15 06:15:04;;;;;;;1.87;1.47;;;;;;;;;;5042842;28;20444;-92
2022/02/15 06:17:32;;;;;;;2.60;1.67;;;5.50;99.90;;;;;;5043536;28;20459;-91
2022/02/15 06:20:00;;;;;;;4.40;1.73;;;;;;;;;;5043409;28;20448;-92
2022/02/15 06:22:27;;;;;;;6.37;1.40;;;;;;;;;;5044027;28;20958;-90
2022/02/15 06:24:54;;;;;;;6.83;2.07;;;;;;;;;;5042976;28;20514;-88
2022/02/15 06:27:22;;;;;;;3.47;1.80;;;;;;;;;;5040596;28;20531;-92
2022/02/15 06:29:49;;;;;;;0.93;0.73;;;;;;;;;;5038078;28;20818;-87
2022/02/15 06:32:16;;;;;;;3.53;1.60;;;;;;;;;;5040815;28;20467;-90
2022/02/15 06:34:44;;;;;;;2.80;1.67;;;5.40;99.90;;;;;;5036576;28;20472;-89
2022/02/15 06:37:15;;;;;;;3.33;1.33;;;;;;;;;;5036768;28;20456;-91
2022/02/15 06:39:42;;;;;;;2.40;2.00;;;;;;;;;;5036756;28;20440;-91
2022/02/15 06:42:10;;;;;;;4.20;2.60;;;6.30;99.90;;;;;;5036115;28;20455;-89
2022/02/15 06:44:37;;;;;;;2.10;0.97;;;;;;;;;;5014802;28;20502;-90
2022/02/15 06:47:05;;;;;;;2.10;1.83;;;;;;;;;;5038209;28;20443;-87
2022/02/15 06:49:32;;;;;;;5.30;4.20;;;;;;;;;;5035739;28;20450;-91
2022/02/15 06:52:00;;;;;;;8.17;6.80;;;5.20;99.90;;;;;;5035218;28;20459;-88
2022/02/15 06:54:27;;;;;;;4.13;3.10;;;;;;;;;;5036016;28;20458;-92
2022/02/15 06:56:55;;;;;;;1.63;1.33;;;;;;;;;;5032221;28;20972;-84
2022/02/15 06:59:22;;;;;;;3.00;2.10;;;;;;;;;;5016794;28;20459;-88
2022/02/15 07:01:50;;;;;;;8.90;3.07;;;;;;;;;;5021322;28;20455;-90
2022/02/15 07:04:17;;;;;;;2.50;2.17;;;;;;;;;;5015575;28;20555;-92
2022/02/15 07:06:44;;;;;;;3.97;2.60;;;;;;;;;;5018513;28;20448;-89
2022/02/15 07:09:13;;;;;;;28.57;16.13;;;5.10;99.90;;;;;;5031926;28;20479;-89
2022/02/15 07:11:40;;;;;;;10.17;7.00;;;;;;;;;;5034808;28;20936;-86
2022/02/15 07:14:07;;;;;;;3.60;2.37;;;;;;;;;;5034696;28;20455;-87
2022/02/15 07:16:35;;;;;;;2.43;1.70;;;;;;;;;;5034359;28;20451;-87
2022/02/15 07:19:02;;;;;;;2.80;2.13;;;;;;;;;;5033990;28;20506;-88
2022/02/15 07:21:30;;;;;;;4.17;2.27;;;;;;;;;;5033482;28;20786;-88
2022/02/15 07:23:58;;;;;;;1.43;1.13;;;;;;;;;;5034551;28;20494;-86
2022/02/15 07:26:26;;;;;;;2.40;1.83;;;5.10;99.90;;;;;;5034481;28;20479;-90
2022/02/15 07:28:53;;;;;;;3.23;1.97;;;;;;;;;;5034716;28;20442;-89
2022/02/15 07:31:20;;;;;;;2.90;1.90;;;;;;;;;;5034595;28;20447;-90
2022/02/15 07:33:47;;;;;;;2.80;1.17;;;;;;;;;;5034430;28;20471;-89
2022/02/15 07:36:14;;;;;;;4.23;1.37;;;;;;;;;;5033424;28;20443;-88
2022/02/15 07:38:42;;;;;;;3.10;1.67;;;;;;;;;;5034771;28;20448;-93
2022/02/15 07:41:09;;;;;;;2.40;2.00;;;;;;;;;;5034592;28;20460;-89
2022/02/15 07:43:37;;;;;;;4.40;1.83;;;5.30;99.90;;;;;;5034524;28;20801;-89
2022/02/15 07:46:06;;;;;;;5.83;2.20;;;;;;;;;;5034178;28;20959;-91
2022/02/15 07:48:34;;;;;;;1.47;1.23;;;;;;;;;;5034183;28;20467;-89
2022/02/15 07:51:01;;;;;;;2.33;1.60;;;;;;;;;;5033862;28;20451;-89
2022/02/15 07:53:28;;;;;;;2.33;1.07;;;;;;;;;;5034380;28;20447;-89
2022/02/15 07:55:56;;;;;;;3.23;1.50;;;;;;;;;;5034865;28;20440;-88
2022/02/15 07:58:23;;;;;;;2.80;1.47;;;;;;;;;;5037580;28;20483;-88
2022/02/15 08:00:52;;;;;;;4.60;1.87;;;5.40;99.90;;;;;;5036271;28;20455;-87
2022/02/15 08:03:19;;;;;;;2.90;1.10;;;;;;;;;;5036849;28;20446;-91
2022/02/15 08:05:46;;;;;;;2.40;1.00;;;;;;;;;;5034985;28;20491;-90
2022/02/15 08:08:16;;;;;;;3.70;1.40;;;;;;;;;;5035832;28;20936;-90
2022/02/15 08:10:43;;;;;;;3.27;1.60;;;;;;;;;;5033824;28;20982;-88
2022/02/15 08:13:18;;;;;;;2.30;1.67;;;;;;;;;;5033698;28;20459;-87
2022/02/15 08:15:45;;;;;;;1.53;1.43;;;;;;;;;;5033732;28;20543;-89
2022/02/15 08:18:13;;;;;;;2.60;1.33;;;5.50;99.90;;;;;;5033432;28;20448;-89
2022/02/15 08:20:40;;;;;;;1.77;1.40;;;;;;;;;;5032949;28;20450;-90
2022/02/15 08:23:07;;;;;;;1.40;0.83;;;;;;;;;;5033516;28;20451;-91
2022/02/15 08:25:35;;;;;;;1.77;1.20;;;;;;;;;;5033667;28;21190;-91
2022/02/15 08:28:02;;;;;;;1.50;1.33;;;;;;;;;;5033944;28;20455;-91
2022/02/15 08:30:29;;;;;;;3.40;1.10;;;;;;;;;;5033970;28;20455;-90
2022/02/15 08:32:56;;;;;;;1.17;1.00;;;;;;;;;;5033127;28;20455;-92
2022/02/15 08:35:24;;;;;;;1.70;1.20;;;5.80;99.90;;;;;;5032514;28;20542;-89
2022/02/15 08:37:52;;;;;;;2.00;1.57;;;;;;;;;;5033178;28;20459;-91
2022/02/15 08:40:20;;;;;;;2.03;1.30;;;;;;;;;;5033854;28;20455;-90
2022/02/15 08:42:47;;;;;;;4.93;3.33;;;;;;;;;;5033803;28;20448;-91
2022/02/15 08:45:15;;;;;;;1.80;1.07;;;;;;;;;;5033222;28;20533;-91
2022/02/15 08:47:42;;;;;;;0.70;0.60;;;;;;;;;;5034134;28;20463;-92
2022/02/15 08:50:10;;;;;;;1.30;1.20;;;6.10;99.90;;;;;;5045272;28;20423;-89
2022/02/15 08:52:38;;;;;;;0.90;0.70;;;6.00;99.90;;;;;;5052901;28;20446;-91
2022/02/15 08:55:07;;;;;;;1.77;1.07;;;5.90;99.90;;;;;;5077827;22;20497;-93
2022/02/15 08:57:34;;;;;;;1.77;1.00;;;;;;;;;;5058174;28;20500;-91
2022/02/15 09:00:01;;;;;;;1.27;1.07;;;;;;;;;;5059841;28;20448;-92
2022/02/15 09:02:30;;;;;;;1.03;0.83;;;;;;;;;;5066402;28;20450;-90
2022/02/15 09:04:57;;;;;;;3.60;1.60;;;;;;;;;;5061435;28;20494;-94
2022/02/15 09:07:24;;;;;;;1.77;1.20;;;;;;;;;;5056646;28;20443;-92
2022/02/15 09:09:52;;;;;;;1.30;1.00;;;6.60;99.90;;;;;;5060156;28;20451;-90
2022/02/15 09:12:20;;;;;;;1.23;1.10;;;;;;;;;;5061290;28;20462;-90
2022/02/15 09:14:47;;;;;;;2.60;1.50;;;;;;;;;;5061303;28;20546;-90
2022/02/15 09:17:14;;;;;;;2.90;1.50;;;;;;;;;;5060654;28;20462;-89
2022/02/15 09:19:41;;;;;;;3.60;1.97;;;;;;;;;;5059170;28;20465;-89
2022/02/15 09:22:08;;;;;;;4.77;3.20;;;;;;;;;;5060785;28;20877;-92
2022/02/15 09:24:35;;;;;;;3.33;2.10;;;;;;;;;;5060860;28;20533;-90
2022/02/15 09:27:05;;;;;;;2.30;1.33;;;6.40;99.90;;;;;;5060488;28;20439;-89
2022/02/15 09:29:32;;;;;;;2.57;1.90;;;;;;;;;;5067601;28;20587;-89
2022/02/15 09:31:59;;;;;;;2.20;1.60;;;;;;;;;;5066773;28;20450;-89
2022/02/15 09:34:27;;;;;;;7.63;4.03;;;;;;;;;;5065661;28;20462;-89
2022/02/15 09:36:55;;;;;;;10.67;5.37;;;;;;;;;;5063529;28;20447;-91
2022/02/15 09:39:23;;;;;;;2.40;1.50;;;;;;;;;;5057004;28;20453;-90
2022/02/15 09:41:50;;;;;;;3.17;1.60;;;;;;;;;;5056975;28;20554;-91
2022/02/15 09:44:18;;;;;;;4.90;0.60;;;6.90;99.90;;;;;;5060836;28;20454;-91
2022/02/15 09:46:46;;;;;;;6.13;4.67;;;;;;;;;;5059650;28;20934;-91
2022/02/15 09:51:55;;;;;;;3.00;1.40;;;;;;;;;;5055530;28;20465;-88
2022/02/15 09:54:22;;;;;;;1.23;0.70;;;;;;;;;;5056799;28;20483;-91
2022/02/15 09:56:49;;;;;;;6.10;2.80;;;;;;;;;;5057188;28;20442;-93
2022/02/15 09:59:16;;;;;;;2.37;1.90;;;;;;;;;;5046531;28;20448;-87
2022/02/15 10:01:45;;;;;;;6.60;2.83;;;7.40;99.90;;;;;;5036626;28;20447;-89
2022/02/15 10:04:12;;;;;;;2.70;1.37;;;;;;;;;;5035204;28;20854;-89
2022/02/15 10:06:40;;;;;;;2.17;1.03;;;;;;;;;;5036189;28;20447;-91
2022/02/15 10:09:08;;;;;;;4.07;1.87;;;;;;;;;;5036043;28;20947;-87
2022/02/15 10:11:36;;;;;;;2.60;1.63;;;8.80;99.90;;;;;;5035759;28;20451;-88
2022/02/15 10:14:03;;;;;;;1.63;1.03;;;;;;;;;;5036280;28;20456;-90
2022/02/15 10:16:31;;;;;;;3.00;1.43;;;;;;;;;;5036486;28;20461;-91
2022/02/15 10:18:59;;;;;;;4.20;1.17;;;8.40;99.90;;;;;;5036010;28;20432;-88
2022/02/15 10:21:28;;;;;;;1.37;1.07;;;7.90;99.90;;;;;;5036071;28;20483;-89
2022/02/15 10:23:56;;;;;;;3.70;1.70;;;7.40;99.90;;;;;;5035517;28;20455;-87
2022/02/15 10:26:25;;;;;;;2.30;1.30;;;;;;;;;;5035358;28;20554;-86
2022/02/15 10:28:52;;;;;;;1.60;1.20;;;;;;;;;;5035476;28;20552;-88
2022/02/15 10:31:19;;;;;;;2.03;1.70;;;;;;;;;;5035728;28;20455;-92
2022/02/15 10:33:48;;;;;;;6.43;1.97;;;;;;;;;;5035437;28;20478;-86
2022/02/15 10:36:17;;;;;;;4.93;1.67;;;7.20;99.90;;;;;;5034924;28;20462;-89
2022/02/15 10:38:46;;;;;;;2.40;1.37;;;7.30;99.90;;;;;;5035744;28;20665;-88
2022/02/15 10:41:14;;;;;;;2.90;2.00;;;7.20;99.90;;;;;;5035590;28;20444;-87
2022/02/15 10:43:44;;;;;;;1.87;1.13;;;7.20;99.90;;;;;;5035319;28;20448;-91
2022/02/15 10:46:11;;;;;;;4.93;1.50;;;;;;;;;;5035864;28;21006;-90
2022/02/15 10:48:39;;;;;;;3.53;1.40;;;;;;;;;;5037366;28;20474;-87
2022/02/15 10:51:06;;;;;;;9.40;1.50;;;;;;;;;;5034681;28;20836;-89
2022/02/15 10:53:34;;;;;;;2.43;1.13;;;;;;;;;;5035366;28;20479;-91
2022/02/15 10:56:01;;;;;;;2.27;1.60;;;;;;;;;;5040838;28;20452;-87
2022/02/15 10:58:29;;;;;;;2.27;1.20;;;7.10;99.90;;;;;;5039646;28;20436;-91
2022/02/15 11:00:58;;;;;;;8.77;1.30;;;7.20;99.90;;;;;;5032921;28;20448;-92
2022/02/15 11:03:26;;;;;;;4.73;1.23;;;;;;;;;;5035159;28;20801;-88
2022/02/15 11:05:53;;;;;;;4.43;1.50;;;;;;;;;;5033512;28;20490;-89
2022/02/15 11:08:21;;;;;;;0.70;0.63;;;7.50;99.90;;;;;;5035582;28;20451;-87
2022/02/15 11:10:54;;;;;;;2.27;1.27;;;7.40;99.90;;;;;;5040717;28;20459;-87
2022/02/15 11:13:22;;;;;;;0.70;0.70;;;;;;;;;;5043836;28;20470;-87
2022/02/15 11:15:51;;;;;;;1.80;1.17;;;;;;;;;;5034227;28;20459;-88
2022/02/15 11:18:30;;;;;;;1.87;1.10;;;7.30;99.90;;;;;;5035773;28;20464;-89
2022/02/15 11:20:58;;;;;;;3.07;1.33;;;;;;;;;;5034901;28;20448;-91
2022/02/15 11:23:26;;;;;;;1.20;1.10;;;7.60;99.90;;;;;;5034074;28;20452;-90
2022/02/15 11:26:07;;;;;;;2.60;1.50;;;7.80;99.90;;;;;;5034487;28;20582;-88
2022/02/15 11:28:45;;;;;;;0.70;0.70;;;7.90;99.90;;;;;;5034165;28;20456;-87
2022/02/15 11:31:12;;;;;;;2.17;1.10;;;;;;;;;;5034122;28;20443;-88
2022/02/15 11:33:40;;;;;;;0.80;0.77;;;7.70;99.90;;;;;;5033435;28;20485;-90
2022/02/15 11:36:09;;;;;;;3.37;1.40;;;7.60;99.90;;;;;;5032946;28;20836;-87
2022/02/15 11:38:37;;;;;;;1.47;1.07;;;7.60;99.90;;;;;;5033632;28;20444;-87
2022/02/15 11:41:07;;;;;;;1.23;1.10;;;7.60;99.90;;;;;;5033714;28;20448;-88
2022/02/15 11:43:34;;;;;;;2.10;1.00;;;;;;;;;;5033421;28;20509;-86
2022/02/15 11:46:02;;;;;;;0.60;0.40;;;;;;;;;;5034741;28;20499;-90
2022/02/15 11:48:37;;;;;;;2.77;0.97;;;7.60;99.90;;;;;;5033426;28;20448;-89
2022/02/15 11:51:16;;;;;;;1.70;0.77;;;7.50;99.90;;;;;;5032780;28;20803;-86
2022/02/15 11:53:44;;;;;;;4.17;1.07;;;;;;;;;;5033453;28;20476;-85
2022/02/15 11:56:14;;;;;;;5.50;1.23;;;7.60;99.90;;;;;;5033921;28;20448;-89
2022/02/15 11:58:44;;;;;;;1.40;0.87;;;7.60;99.90;;;;;;5033929;28;20447;-89
2022/02/15 12:01:24;;;;;;;1.20;0.90;;;7.50;99.90;;;;;;5034216;28;20450;-92
2022/02/15 12:03:51;;;;;;;0.90;0.77;;;;;;;;;;5031876;28;20460;-90
2022/02/15 12:06:18;;;;;;;1.43;1.30;;;;;;;;;;5032456;28;21005;-87
2022/02/15 12:08:54;;;;;;;9.00;1.40;;;7.60;99.90;;;;;;5033585;28;20458;-89
2022/02/15 12:11:32;;;;;;;5.90;1.63;;;7.70;99.90;;;;;;5033196;28;20451;-87
2022/02/15 12:14:10;;;;;;;4.50;1.30;;;8.00;99.90;;;;;;5031054;28;20518;-90
2022/02/15 12:16:41;;;;;;;4.63;1.20;;;8.50;99.90;;;;;;5028680;28;20482;-89
2022/02/15 12:19:08;;;;;;;2.97;1.03;;;;;;;;;;5033431;28;20452;-89
2022/02/15 12:21:39;;;;;;;3.93;1.57;;;8.80;99.90;;;;;;5032282;28;20455;-87
2022/02/15 12:24:07;;;;;;;2.73;1.30;;;10.00;99.90;;;;;;5030598;28;20487;-89
2022/02/15 12:26:40;;;;;;;1.67;1.53;;;;;;;;;;5033313;28;20487;-89
2022/02/15 12:29:07;;;;;;;2.70;1.37;;;8.30;99.90;;;;;;5033625;28;20543;-86
2022/02/15 12:31:34;;;;;;;2.40;1.40;;;;;;;;;;5033078;28;20451;-89
2022/02/15 12:34:04;;;;;;;2.07;1.27;;;;;;;;;;5033142;28;20459;-89
2022/02/15 12:36:31;;;;;;;2.10;1.30;;;;;;;;;;5032299;28;20459;-89
2022/02/15 12:38:59;;;;;;;3.07;1.70;;;;;;;;;;5033458;28;20450;-89
2022/02/15 12:41:27;;;;;;;1.90;1.17;;;;;;;;;;5033473;28;20440;-87
2022/02/15 12:43:59;;;;;;;2.37;1.77;;;8.00;99.90;;;;;;5033462;28;20448;-94
2022/02/15 12:46:26;;;;;;;4.50;1.87;;;;;;;;;;5035179;28;20499;-88
2022/02/15 12:48:55;;;;;;;3.50;1.60;;;;;;;;;;5037520;28;20447;-89
2022/02/15 12:51:22;;;;;;;2.73;1.60;;;8.40;99.90;;;;;;5036249;28;20459;-90
2022/02/15 12:53:50;;;;;;;5.00;2.10;;;;;;;;;;5037264;28;20845;-88
2022/02/15 12:56:17;;;;;;;1.10;1.00;;;;;;;;;;5037460;28;20463;-88
2022/02/15 12:58:47;;;;;;;1.13;1.03;;;8.30;99.90;;;;;;5037312;28;20451;-90
2022/02/15 13:01:17;;;;;;;1.73;1.63;;;8.30;99.90;;;;;;5037693;28;20436;-90
2022/02/15 13:03:45;;;;;;;3.40;1.50;;;8.40;99.90;;;;;;5034978;28;20463;-87
2022/02/15 13:06:13;;;;;;;3.80;1.80;;;8.50;99.90;;;;;;5035643;28;20487;-87
2022/02/15 13:08:44;;;;;;;1.80;1.60;;;8.50;99.90;;;;;;5035861;28;20447;-91
2022/02/15 13:11:12;;;;;;;1.80;1.40;;;;;;;;;;5035283;28;20479;-88
2022/02/15 13:13:39;;;;;;;2.47;1.57;;;;;;;;;;5037011;28;20851;-89
2022/02/15 13:16:07;;;;;;;3.33;2.10;;;9.00;99.90;;;;;;5037570;28;20443;-90
2022/02/15 13:18:44;;;;;;;1.93;1.20;;;8.90;99.90;;;;;;5038274;28;20436;-90
2022/02/15 13:21:15;;;;;;;2.23;1.03;;;8.80;99.90;;;;;;5036659;28;20447;-91
2022/02/15 13:23:55;;;;;;;1.60;1.10;;;8.40;99.90;;;;;;5040344;28;20455;-91
2022/02/15 13:26:30;;;;;;;2.83;2.10;;;8.00;99.90;;;;;;5041671;28;20486;-87
2022/02/15 13:28:58;;;;;;;1.50;1.40;;;;;;;;;;5038901;28;20977;-89
2022/02/15 13:31:25;;;;;;;1.57;1.47;;;;;;;;;;5034018;28;20456;-86
2022/02/15 13:33:55;;;;;;;5.13;1.70;;;7.80;99.90;;;;;;5038738;28;20451;-90
2022/02/15 13:36:31;;;;;;;2.23;1.60;;;7.70;99.90;;;;;;5038007;28;20938;-87
2022/02/15 13:38:58;;;;;;;0.93;0.70;;;;;;;;;;5037202;28;20451;-89
2022/02/15 13:41:25;;;;;;;1.93;1.67;;;;;;;;;;5036891;28;20429;-89
2022/02/15 13:43:58;;;;;;;0.70;0.50;;;6.50;99.90;;;;;;5036600;28;20495;-89
2022/02/15 13:46:29;;;;;;;0.97;0.80;;;6.60;99.90;;;;;;5036093;28;20498;-84
2022/02/15 13:48:58;;;;;;;1.03;0.70;;;6.60;99.90;;;;;;5036122;28;20447;-93
2022/02/15 13:51:27;;;;;;;1.00;0.80;;;;;;;;;;5035586;28;20450;-90
2022/02/15 13:53:54;;;;;;;2.27;1.47;;;;;;;;;;5036105;28;20541;-91
2022/02/15 13:56:22;;;;;;;2.80;1.60;;;6.70;99.90;;;;;;5037217;28;20459;-93
2022/02/15 13:58:49;;;;;;;1.03;0.77;;;;;;;;;;5035553;28;20514;-87
2022/02/15 14:01:16;;;;;;;1.77;1.00;;;;;;;;;;5035404;28;20459;-88
2022/02/15 14:03:44;;;;;;;8.47;3.37;;;;;;;;;;5035442;28;20478;-87
2022/02/15 14:06:12;;;;;;;4.07;2.73;;;7.60;99.90;;;;;;5033708;28;20518;-86
2022/02/15 14:08:39;;;;;;;0.97;0.90;;;;;;;;;;5035170;28;20474;-87
2022/02/15 14:11:06;;;;;;;1.93;1.53;;;8.70;99.90;;;;;;5035668;28;20949;-84
2022/02/15 14:13:33;;;;;;;1.87;1.30;;;;;;;;;;5035499;28;20444;-86
2022/02/15 14:16:01;;;;;;;5.00;1.73;;;;;;;;;;5035628;28;20454;-87
2022/02/15 14:18:28;;;;;;;3.80;1.90;;;;;;;;;;5035531;28;20463;-84
2022/02/15 14:20:55;;;;;;;1.17;1.00;;;;;;;;;;5034245;28;20454;-88
2022/02/15 14:23:23;;;;;;;1.97;1.03;;;7.90;99.90;;;;;;5035480;28;20447;-87